createdAt,value
2019-04-10T00:03:48.284Z,15.93
2019-04-10T00:08:44.238Z,16.37
2019-04-10T00:13:40.121Z,15.30
2019-04-10T00:18:37.981Z,16.70
2019-04-10T00:23:33.728Z,15.60
2019-04-10T00:28:31.759Z,16.40
2019-04-10T00:33:27.741Z,16.03
2019-04-10T00:38:24.049Z,16.20
2019-04-10T00:43:20.989Z,17.47
2019-04-10T00:48:17.493Z,15.67
2019-04-10T00:53:13.239Z,16.27
2019-04-10T00:58:09.903Z,15.53
2019-04-10T01:03:05.644Z,16.17
2019-04-10T01:08:02.315Z,15.47
2019-04-10T01:12:58.735Z,15.47
2019-04-10T01:17:55.373Z,15.50
2019-04-10T01:22:51.901Z,16.10
2019-04-10T01:27:47.970Z,15.30
2019-04-10T01:32:43.941Z,15.97
2019-04-10T01:37:51.480Z,15.50
2019-04-10T01:42:38.813Z,15.67
2019-04-10T01:47:35.203Z,15.97
2019-04-10T01:52:31.162Z,15.43
2019-04-10T01:57:28.407Z,15.90
2019-04-10T02:02:47.699Z,15.40
2019-04-10T02:07:44.510Z,15.63
2019-04-10T02:12:41.012Z,16.07
2019-04-10T02:17:38.964Z,27.87
2019-04-10T02:22:34.718Z,23.23
2019-04-10T02:27:30.357Z,19.27
2019-04-10T02:32:26.493Z,18.37
2019-04-10T02:37:22.918Z,19.90
2019-04-10T02:42:20.809Z,19.63
2019-04-10T02:47:16.975Z,17.03
2019-04-10T02:52:13.037Z,16.27
2019-04-10T02:57:11.256Z,15.77
2019-04-10T03:02:08.515Z,17.20
2019-04-10T03:07:04.496Z,16.93
2019-04-10T03:12:01.541Z,16.73
2019-04-10T03:16:57.132Z,16.17
2019-04-10T03:21:53.400Z,16.90
2019-04-10T03:26:49.937Z,17.00
2019-04-10T03:31:47.512Z,16.33
2019-04-10T03:36:43.465Z,16.07
2019-04-10T03:41:40.150Z,16.57
2019-04-10T03:46:38.729Z,16.13
2019-04-10T03:51:34.203Z,16.63
2019-04-10T03:56:29.816Z,18.63
2019-04-10T04:01:25.519Z,16.90
2019-04-10T04:06:21.722Z,17.03
2019-04-10T04:11:17.619Z,18.40
2019-04-10T04:16:15.020Z,18.33
2019-04-10T04:21:11.738Z,18.00
2019-04-10T04:26:07.396Z,17.67
2019-04-10T04:31:03.192Z,18.10
2019-04-10T04:35:59.953Z,18.57
2019-04-10T04:40:55.697Z,18.83
2019-04-10T04:45:51.614Z,19.63
2019-04-10T04:50:49.904Z,20.30
2019-04-10T04:55:45.612Z,18.00
2019-04-10T05:00:41.748Z,17.67
2019-04-10T05:05:39.127Z,17.23
2019-04-10T05:10:35.680Z,17.50
2019-04-10T05:15:31.430Z,17.33
2019-04-10T05:20:39.302Z,16.63
2019-04-10T05:25:25.181Z,16.93
2019-04-10T05:30:20.935Z,17.03
2019-04-10T05:35:17.264Z,17.80
2019-04-10T05:40:12.960Z,18.23
2019-04-10T05:45:09.203Z,19.27
2019-04-10T05:50:06.095Z,19.30
2019-04-10T05:55:02.303Z,19.40
2019-04-10T05:59:58.427Z,18.97
2019-04-10T06:04:54.154Z,19.37
2019-04-10T06:09:55.986Z,19.73
2019-04-10T06:14:48.380Z,20.80
2019-04-10T06:19:45.200Z,21.00
2019-04-10T06:24:42.511Z,22.23
2019-04-10T06:29:39.223Z,23.50
2019-04-10T06:34:36.292Z,21.97
2019-04-10T06:39:33.001Z,24.07
2019-04-10T06:44:28.747Z,23.70
2019-04-10T06:49:24.869Z,26.13
2019-04-10T06:54:20.615Z,23.97
2019-04-10T06:59:16.372Z,24.10
2019-04-10T07:04:12.076Z,24.10
2019-04-10T07:09:09.700Z,24.13
2019-04-10T07:14:10.228Z,26.30
2019-04-10T07:19:07.246Z,26.57
2019-04-10T07:24:05.361Z,28.03
2019-04-10T07:28:58.955Z,27.40
2019-04-10T07:33:54.889Z,27.77
2019-04-10T07:38:53.917Z,28.13
2019-04-10T07:43:52.819Z,27.97
2019-04-10T07:48:45.570Z,28.33
2019-04-10T07:53:43.495Z,28.23
2019-04-10T07:58:39.959Z,31.20
2019-04-10T08:03:35.844Z,28.67
2019-04-10T08:08:33.953Z,27.80
2019-04-10T08:13:30.813Z,26.83
2019-04-10T08:18:27.604Z,27.90
2019-04-10T08:23:23.869Z,26.43
2019-04-10T08:28:19.824Z,27.50
2019-04-10T08:33:15.584Z,28.40
2019-04-10T08:38:11.285Z,28.67
2019-04-10T08:43:08.085Z,27.77
2019-04-10T08:48:04.000Z,28.13
2019-04-10T08:52:59.980Z,29.03
2019-04-10T08:57:56.568Z,35.43
2019-04-10T09:02:52.683Z,30.53
2019-04-10T09:07:48.557Z,26.97
2019-04-10T09:12:45.111Z,26.53
2019-04-10T09:17:41.708Z,25.53
2019-04-10T09:22:58.002Z,26.20
2019-04-10T09:27:35.860Z,25.40
2019-04-10T09:32:32.588Z,24.70
2019-04-10T09:37:28.334Z,25.27
2019-04-10T09:42:24.118Z,22.57
2019-04-10T09:47:20.613Z,22.63
2019-04-10T09:52:16.616Z,23.10
2019-04-10T09:57:12.352Z,22.60
2019-04-10T10:02:09.116Z,24.73
2019-04-10T10:07:06.504Z,24.77
2019-04-10T10:12:03.065Z,23.77
2019-04-10T10:16:58.796Z,24.93
2019-04-10T10:21:54.637Z,24.37
2019-04-10T10:26:51.412Z,25.00
2019-04-10T10:31:49.711Z,25.03
2019-04-10T10:36:47.403Z,24.43
2019-04-10T10:41:42.617Z,24.07
2019-04-10T10:46:38.433Z,23.50
2019-04-10T10:51:34.999Z,21.90
2019-04-10T10:56:30.743Z,22.97
2019-04-10T11:01:27.471Z,20.67
2019-04-10T11:06:23.290Z,19.57
2019-04-10T11:11:19.951Z,19.83
2019-04-10T11:16:17.002Z,19.07
2019-04-10T11:21:14.087Z,20.53
2019-04-10T11:26:11.094Z,18.90
2019-04-10T11:31:07.148Z,18.10
2019-04-10T11:36:03.782Z,17.03
2019-04-10T11:41:00.086Z,15.67
2019-04-10T11:45:58.655Z,16.77
2019-04-10T11:50:55.898Z,17.67
2019-04-10T11:55:53.010Z,14.03
2019-04-10T12:00:52.520Z,13.20
2019-04-10T12:05:48.349Z,13.67
2019-04-10T12:15:42.894Z,15.20
2019-04-10T12:20:38.965Z,15.60
2019-04-10T12:25:34.746Z,15.03
2019-04-10T12:30:31.171Z,14.80
2019-04-10T12:35:26.901Z,13.90
2019-04-10T12:40:22.544Z,13.63
2019-04-10T12:45:18.794Z,14.50
2019-04-10T12:50:14.648Z,14.57
2019-04-10T12:55:10.634Z,12.00
2019-04-10T13:00:11.819Z,18.90
2019-04-10T13:05:07.659Z,15.17
2019-04-10T13:10:04.410Z,13.63
2019-04-10T13:15:01.281Z,12.73
2019-04-10T13:19:59.473Z,11.07
2019-04-10T13:24:55.323Z,10.97
2019-04-10T13:29:50.934Z,11.80
2019-04-10T13:34:46.581Z,13.03
2019-04-10T13:39:43.271Z,12.33
2019-04-10T13:44:38.973Z,13.90
2019-04-10T13:49:35.679Z,13.07
2019-04-10T13:54:31.517Z,11.90
2019-04-10T13:59:27.273Z,12.17
2019-04-10T14:04:23.388Z,12.87
2019-04-10T14:09:34.350Z,12.40
2019-04-10T14:14:18.232Z,12.20
2019-04-10T14:19:15.113Z,11.73
2019-04-10T14:24:18.160Z,12.63
2019-04-10T14:29:16.551Z,11.87
2019-04-10T14:34:12.443Z,11.80
2019-04-10T14:39:18.394Z,10.63
2019-04-10T14:44:12.405Z,10.80
2019-04-10T14:49:11.112Z,12.47
2019-04-10T14:54:08.112Z,12.57
2019-04-10T14:59:05.644Z,14.73
2019-04-10T15:04:02.615Z,13.80
2019-04-10T15:08:58.402Z,14.03
2019-04-10T15:13:54.870Z,14.33
2019-04-10T15:18:50.644Z,15.27
2019-04-10T15:23:46.824Z,13.40
2019-04-10T15:28:43.602Z,12.77
2019-04-10T15:33:39.483Z,12.73
2019-04-10T15:38:36.145Z,12.27
2019-04-10T15:43:33.719Z,11.90
2019-04-10T15:48:32.031Z,11.23
2019-04-10T15:53:28.646Z,11.80
2019-04-10T15:58:25.538Z,11.23
2019-04-10T16:03:21.851Z,11.50
2019-04-10T16:08:20.349Z,12.13
2019-04-10T16:13:35.236Z,12.77
2019-04-10T16:18:32.604Z,13.40
2019-04-10T16:23:33.937Z,12.90
2019-04-10T16:28:29.742Z,11.93
2019-04-10T16:33:25.497Z,9.77
2019-04-10T16:38:21.228Z,11.27
2019-04-10T16:43:16.943Z,10.43
2019-04-10T16:48:12.892Z,11.93
2019-04-10T16:53:09.641Z,11.60
2019-04-10T16:58:05.637Z,18.80
2019-04-10T17:03:02.353Z,14.83
2019-04-10T17:08:00.456Z,14.30
2019-04-10T17:12:56.520Z,13.50
2019-04-10T17:17:52.713Z,12.73
2019-04-10T17:22:49.710Z,13.33
2019-04-10T17:27:47.870Z,13.87
2019-04-10T17:32:44.667Z,12.70
2019-04-10T17:37:42.129Z,11.33
2019-04-10T17:42:39.295Z,10.83
2019-04-10T17:47:36.686Z,12.23
2019-04-10T17:52:34.789Z,12.57
2019-04-10T17:57:38.383Z,12.80
2019-04-10T18:02:27.733Z,11.93
2019-04-10T18:07:25.252Z,10.70
2019-04-10T18:12:21.658Z,13.47
2019-04-10T18:17:18.950Z,12.00
2019-04-10T18:22:14.609Z,11.30
2019-04-10T18:27:10.514Z,22.80
2019-04-10T18:32:07.605Z,15.70
2019-04-10T18:37:05.516Z,13.67
2019-04-10T18:42:01.621Z,12.73
2019-04-10T18:46:57.931Z,12.53
2019-04-10T18:51:54.309Z,10.93
2019-04-10T18:56:51.426Z,11.73
2019-04-10T19:02:19.975Z,11.90
2019-04-10T19:07:15.910Z,12.30
2019-04-10T19:12:12.734Z,14.20
2019-04-10T19:17:11.105Z,15.20
2019-04-10T19:22:08.076Z,15.97
2019-04-10T19:27:05.491Z,16.37
2019-04-10T19:32:05.356Z,18.17
2019-04-10T19:37:01.667Z,16.23
2019-04-10T19:41:57.677Z,12.60
2019-04-10T19:46:53.702Z,12.93
2019-04-10T19:51:50.854Z,10.27
2019-04-10T19:56:47.441Z,11.33
2019-04-10T20:01:44.517Z,10.60
2019-04-10T20:06:40.707Z,9.63
2019-04-10T20:11:43.409Z,9.73
2019-04-10T20:16:37.492Z,10.07
2019-04-10T20:21:34.352Z,9.60
2019-04-10T20:26:31.402Z,12.87
2019-04-10T20:31:33.210Z,11.00
2019-04-10T20:36:29.144Z,13.50
2019-04-10T20:41:24.984Z,15.53
2019-04-10T20:46:20.766Z,16.63
2019-04-10T20:51:16.590Z,16.67
2019-04-10T20:56:15.788Z,16.97
2019-04-10T21:01:10.517Z,16.17
2019-04-10T21:06:06.904Z,15.20
2019-04-10T21:11:03.412Z,15.30
2019-04-10T21:15:59.185Z,15.23
2019-04-10T21:20:54.832Z,11.50
2019-04-10T21:25:50.474Z,9.53
2019-04-10T21:31:15.902Z,8.77
2019-04-10T21:36:11.736Z,9.57
2019-04-10T21:41:09.988Z,9.27
2019-04-10T21:46:05.982Z,9.87
2019-04-10T21:51:02.625Z,9.67
2019-04-10T21:55:58.405Z,10.30
2019-04-10T22:01:07.475Z,10.10
2019-04-10T22:06:21.826Z,10.83
2019-04-10T22:11:19.055Z,10.60
2019-04-10T22:16:17.856Z,10.97
2019-04-10T22:21:14.434Z,10.80
2019-04-10T22:26:10.210Z,11.30
2019-04-10T22:31:05.831Z,12.40
2019-04-10T22:36:01.465Z,12.80
2019-04-10T22:40:58.096Z,9.13
2019-04-10T22:45:54.862Z,9.50
2019-04-10T22:50:51.329Z,10.00
2019-04-10T22:55:46.987Z,10.00
2019-04-10T23:00:43.791Z,10.63
2019-04-10T23:05:40.558Z,11.17
2019-04-10T23:10:37.201Z,11.17
2019-04-10T23:15:33.601Z,11.70
2019-04-10T23:20:30.018Z,11.00
2019-04-10T23:25:26.579Z,10.60
2019-04-10T23:30:22.295Z,10.67
2019-04-10T23:35:19.091Z,10.60
2019-04-10T23:40:15.011Z,11.10
2019-04-10T23:45:13.532Z,10.43
2019-04-10T23:50:10.316Z,12.07
2019-04-10T23:55:08.028Z,12.60
